sensor_id;sensor_type;location;lat;lon;timestamp;temperature;humidity
63407;SHT31;49543;45.892;10.838;2022-11-04T17:03:21;12.42;83.96
63407;SHT31;49543;45.892;10.838;2022-11-04T17:05:48;12.44;82.92
63407;SHT31;49543;45.892;10.838;2022-11-04T17:08:14;12.37;78.75
63407;SHT31;49543;45.892;10.838;2022-11-04T17:10:39;12.45;80.54
63407;SHT31;49543;45.892;10.838;2022-11-04T17:13:06;12.49;81.41
63407;SHT31;49543;45.892;10.838;2022-11-04T17:15:32;12.48;80.58
63407;SHT31;49543;45.892;10.838;2022-11-04T17:17:58;12.51;81.11
63407;SHT31;49543;45.892;10.838;2022-11-04T17:20:23;12.52;81.57
63407;SHT31;49543;45.892;10.838;2022-11-04T17:22:48;12.44;82.53
63407;SHT31;49543;45.892;10.838;2022-11-04T17:25:20;12.42;83.02
63407;SHT31;49543;45.892;10.838;2022-11-04T17:27:47;12.42;83.11
63407;SHT31;49543;45.892;10.838;2022-11-04T17:30:13;12.41;83.59
63407;SHT31;49543;45.892;10.838;2022-11-04T17:32:40;12.35;84.32
63407;SHT31;49543;45.892;10.838;2022-11-04T17:35:05;12.35;84.48
63407;SHT31;49543;45.892;10.838;2022-11-04T17:37:31;12.30;84.91
63407;SHT31;49543;45.892;10.838;2022-11-04T17:39:56;12.28;84.99
63407;SHT31;49543;45.892;10.838;2022-11-04T17:42:22;12.26;84.75
63407;SHT31;49543;45.892;10.838;2022-11-04T17:45:06;12.21;83.86
63407;SHT31;49543;45.892;10.838;2022-11-04T17:47:36;12.23;83.27
63407;SHT31;49543;45.892;10.838;2022-11-04T17:50:02;12.14;83.21
63407;SHT31;49543;45.892;10.838;2022-11-04T17:52:29;12.16;83.57
63407;SHT31;49543;45.892;10.838;2022-11-04T17:54:55;12.16;83.64
63407;SHT31;49543;45.892;10.838;2022-11-04T17:57:20;12.17;83.65
63407;SHT31;49543;45.892;10.838;2022-11-04T17:59:46;12.14;83.08
63407;SHT31;49543;45.892;10.838;2022-11-04T18:02:11;12.18;82.32
63407;SHT31;49543;45.892;10.838;2022-11-04T18:04:36;12.13;81.93
63407;SHT31;49543;45.892;10.838;2022-11-04T18:07:02;12.13;82.33
63407;SHT31;49543;45.892;10.838;2022-11-04T18:09:29;12.03;83.26
63407;SHT31;49543;45.892;10.838;2022-11-04T18:11:54;11.99;83.73
63407;SHT31;49543;45.892;10.838;2022-11-04T18:14:38;11.89;81.57
63407;SHT31;49543;45.892;10.838;2022-11-04T18:17:04;11.96;81.84
63407;SHT31;49543;45.892;10.838;2022-11-04T18:19:30;12.03;81.60
63407;SHT31;49543;45.892;10.838;2022-11-04T18:21:55;12.04;80.49
63407;SHT31;49543;45.892;10.838;2022-11-04T18:24:21;12.04;81.20
63407;SHT31;49543;45.892;10.838;2022-11-04T18:26:46;12.03;82.05
63407;SHT31;49543;45.892;10.838;2022-11-04T18:29:12;11.99;82.14
63407;SHT31;49543;45.892;10.838;2022-11-04T18:31:38;11.99;82.23
63407;SHT31;49543;45.892;10.838;2022-11-04T18:34:09;11.82;84.01
63407;SHT31;49543;45.892;10.838;2022-11-04T18:36:35;11.85;81.79
63407;SHT31;49543;45.892;10.838;2022-11-04T18:39:06;11.90;80.99
63407;SHT31;49543;45.892;10.838;2022-11-04T18:41:34;11.93;79.70
63407;SHT31;49543;45.892;10.838;2022-11-04T18:43:59;12.00;79.17
63407;SHT31;49543;45.892;10.838;2022-11-04T18:46:25;12.03;79.18
63407;SHT31;49543;45.892;10.838;2022-11-04T18:48:51;12.01;80.38
63407;SHT31;49543;45.892;10.838;2022-11-04T18:51:21;11.97;82.18
63407;SHT31;49543;45.892;10.838;2022-11-04T18:53:48;11.94;82.72
63407;SHT31;49543;45.892;10.838;2022-11-04T18:56:16;11.89;82.87
63407;SHT31;49543;45.892;10.838;2022-11-04T18:58:42;11.94;82.26
63407;SHT31;49543;45.892;10.838;2022-11-04T19:01:26;11.94;82.05
63407;SHT31;49543;45.892;10.838;2022-11-04T19:03:52;11.96;81.95
63407;SHT31;49543;45.892;10.838;2022-11-04T19:06:22;11.91;82.29
63407;SHT31;49543;45.892;10.838;2022-11-04T19:08:54;11.91;81.81
63407;SHT31;49543;45.892;10.838;2022-11-04T19:11:22;11.89;81.37
63407;SHT31;49543;45.892;10.838;2022-11-04T19:13:56;11.79;82.11
63407;SHT31;49543;45.892;10.838;2022-11-04T21:35:03;11.00;83.30
63407;SHT31;49543;45.892;10.838;2022-11-04T21:37:31;11.01;83.06
63407;SHT31;49543;45.892;10.838;2022-11-04T21:39:58;11.04;82.08
63407;SHT31;49543;45.892;10.838;2022-11-04T21:42:26;10.97;82.27
63407;SHT31;49543;45.892;10.838;2022-11-04T21:44:52;10.96;82.81
63407;SHT31;49543;45.892;10.838;2022-11-04T21:47:17;10.95;82.78
63407;SHT31;49543;45.892;10.838;2022-11-04T21:49:43;10.96;82.95
63407;SHT31;49543;45.892;10.838;2022-11-04T21:52:08;10.87;83.48
63407;SHT31;49543;45.892;10.838;2022-11-04T21:54:33;10.86;83.67
63407;SHT31;49543;45.892;10.838;2022-11-04T21:56:59;10.87;83.44
63407;SHT31;49543;45.892;10.838;2022-11-04T21:59:24;10.83;83.62
63407;SHT31;49543;45.892;10.838;2022-11-04T22:01:49;10.83;83.49
63407;SHT31;49543;45.892;10.838;2022-11-04T22:04:15;10.83;82.91
63407;SHT31;49543;45.892;10.838;2022-11-04T22:06:40;10.84;82.54
63407;SHT31;49543;45.892;10.838;2022-11-04T22:09:08;10.89;82.28
63407;SHT31;49543;45.892;10.838;2022-11-04T22:11:34;10.89;82.52
63407;SHT31;49543;45.892;10.838;2022-11-04T22:14:04;10.76;82.22
63407;SHT31;49543;45.892;10.838;2022-11-04T22:16:32;10.75;83.24
63407;SHT31;49543;45.892;10.838;2022-11-04T22:19:00;10.72;83.39
63407;SHT31;49543;45.892;10.838;2022-11-04T22:21:27;10.66;83.45
63407;SHT31;49543;45.892;10.838;2022-11-04T22:23:54;10.70;83.04
63407;SHT31;49543;45.892;10.838;2022-11-04T22:26:24;10.69;82.57
63407;SHT31;49543;45.892;10.838;2022-11-04T22:28:51;10.75;82.28
63407;SHT31;49543;45.892;10.838;2022-11-04T22:33:46;10.81;82.01
63407;SHT31;49543;45.892;10.838;2022-11-04T22:36:12;10.83;81.99
63407;SHT31;49543;45.892;10.838;2022-11-04T22:38:40;10.83;81.82
63407;SHT31;49543;45.892;10.838;2022-11-04T22:41:07;11.00;80.40
63407;SHT31;49543;45.892;10.838;2022-11-04T22:43:33;10.87;81.09
63407;SHT31;49543;45.892;10.838;2022-11-04T22:46:15;10.84;82.01
63407;SHT31;49543;45.892;10.838;2022-11-04T22:48:43;10.80;82.42
63407;SHT31;49543;45.892;10.838;2022-11-04T22:51:08;10.72;82.93
63407;SHT31;49543;45.892;10.838;2022-11-04T22:53:35;10.76;81.46
